アデレード の空港の天気 - METARとTAF

アデレード空港 ( YPAD / ADL ) - オーストラリア 南オーストラリア州アデレード
飛行場実況気象(Metar)
観測時間02/02 01:30 ACDT (02/01 15:00 UTC)
風向・風速南南東 3m/s
視程10km以上
天気現象
全天の8割程度の雲 雲底高度 1010m
全天を覆う雲 雲底高度 1190m
全天を覆う雲 雲底高度 1800m
気温16℃
湿度68%
気圧1006hPa
METARYPAD 011500Z AUTO 15005KT 9999 // BKN033 OVC039 OVC059 16/10 Q1006
過去の天気等 Google飛行場航空写真 Wunderground天気予報

過去48時間のMETAR

飛行場予報(TAF)
発表時間: 2/02 00:35 ACDT (2/01 14:05 UTC)
予報対象時間: 2日1時 ACDT ~ 3日4時 ACDT
風向・風速南 4m/s
視程10km以上
少しの雲 雲底高度 910m
全天の4割程度の雲 雲底高度 1520m
2日2時 ACDT から
風向・風速南西 5m/s
視程10km以上
少しの雲 雲底高度 1070m
2日6時 ACDT から
風向・風速西 9m/s
視程10km以上
全天の4割程度の雲 雲底高度 760m
全天の8割程度の雲 雲底高度 1220m
2日11時 ACDT から
風向・風速西 10m/s 瞬間風速 15m/s
視程10km以上
天気現象弱いしゅう雨
全天の4割程度の雲 雲底高度 610m
全天の8割程度の雲 雲底高度 1070m
2日15時 ACDT から
風向・風速南西 13m/s 瞬間風速 18m/s
視程10km以上
天気現象弱いしゅう雨
全天の4割程度の雲 雲底高度 460m
全天の8割程度の雲 雲底高度 760m
2日18時 ACDT から
風向・風速西南西 9m/s 瞬間風速 15m/s
視程10km以上
天気現象弱いしゅう雨
全天の4割程度の雲 雲底高度 1070m
TAF YPAD 011405Z 0115/0218 18008KT 9999 FEW030 SCT050
FM011600 22010KT 9999 FEW035
FM012000 26017KT 9999 SCT025 BKN040
FM020100 27020G30KT 9999 -SHRA SCT020 BKN035
FM020500 23025G35KT 9999 -SHRA SCT015 BKN025
FM020800 24018G30KT 9999 -SHRA SCT035 INTER 0202/0207 4000 SHRA BKN012